createdAt,value
2024-04-22T00:00:34.634Z,4.90
2024-04-22T00:01:34.807Z,4.90
2024-04-22T00:02:34.587Z,4.40
2024-04-22T00:03:34.749Z,4.90
2024-04-22T00:04:34.580Z,4.90
2024-04-22T00:05:34.562Z,5.00
2024-04-22T00:06:34.505Z,4.70
2024-04-22T00:07:34.635Z,5.10
2024-04-22T00:08:35.236Z,4.60
2024-04-22T00:09:34.585Z,4.90
2024-04-22T00:10:34.640Z,4.90
2024-04-22T00:11:34.586Z,5.60
2024-04-22T00:12:34.475Z,5.50
2024-04-22T00:13:34.735Z,5.80
2024-04-22T00:14:34.573Z,5.80
2024-04-22T00:15:34.460Z,5.80
2024-04-22T00:16:34.485Z,5.60
2024-04-22T00:17:34.702Z,6.10
2024-04-22T00:18:34.414Z,6.40
2024-04-22T00:19:34.566Z,5.80
2024-04-22T00:20:34.556Z,6.60
2024-04-22T00:21:34.453Z,6.60
2024-04-22T00:22:35.399Z,6.40
2024-04-22T00:23:34.405Z,5.70
2024-04-22T00:24:34.316Z,6.00
2024-04-22T00:25:34.388Z,5.80
2024-04-22T00:26:34.335Z,5.40
2024-04-22T00:27:34.295Z,5.00
2024-04-22T00:28:35.245Z,5.90
2024-04-22T00:29:34.875Z,6.10
2024-04-22T00:30:34.311Z,5.40
2024-04-22T00:31:34.341Z,6.00
2024-04-22T00:32:34.298Z,6.00
2024-04-22T00:33:34.244Z,5.80
2024-04-22T00:34:34.291Z,6.00
2024-04-22T00:35:34.220Z,5.80
2024-04-22T00:36:34.193Z,6.60
2024-04-22T00:37:34.330Z,6.10
2024-04-22T00:38:34.203Z,6.10
2024-04-22T00:39:34.174Z,6.10
2024-04-22T00:40:34.296Z,6.60
2024-04-22T00:41:34.153Z,6.20
2024-04-22T00:42:34.134Z,6.40
2024-04-22T00:43:34.142Z,7.20
2024-04-22T00:44:34.145Z,5.80
2024-04-22T00:45:34.103Z,6.20
2024-04-22T00:46:34.126Z,7.20
2024-04-22T00:47:34.153Z,6.40
2024-04-22T00:48:34.078Z,6.90
2024-04-22T00:49:34.124Z,6.60
2024-04-22T00:50:34.810Z,6.30
2024-04-22T00:51:34.025Z,6.40
2024-04-22T00:52:34.036Z,6.40
2024-04-22T00:53:34.029Z,6.40
2024-04-22T00:54:33.991Z,6.80
2024-04-22T00:55:34.014Z,5.90
2024-04-22T00:56:34.727Z,6.60
2024-04-22T00:57:33.979Z,5.50
2024-04-22T00:58:34.010Z,5.90
2024-04-22T00:59:33.940Z,5.90
2024-04-22T01:00:33.954Z,5.60
2024-04-22T01:01:33.988Z,5.20
2024-04-22T01:02:33.942Z,5.80
2024-04-22T01:03:33.920Z,5.60
2024-04-22T01:04:34.067Z,5.90
2024-04-22T01:05:33.882Z,5.70
2024-04-22T01:06:33.865Z,5.90
2024-04-22T01:07:33.894Z,5.00
2024-04-22T01:08:33.855Z,5.50
2024-04-22T01:09:33.820Z,5.50
2024-04-22T01:10:33.933Z,5.30
2024-04-22T01:11:34.473Z,5.70
2024-04-22T01:12:33.808Z,6.00
2024-04-22T01:13:33.800Z,5.80
2024-04-22T01:14:33.788Z,5.60
2024-04-22T01:15:33.748Z,5.40
2024-04-22T01:16:33.755Z,6.00
2024-04-22T01:17:33.789Z,5.60
2024-04-22T01:18:33.728Z,5.80
2024-04-22T01:19:33.713Z,5.70
2024-04-22T01:20:33.718Z,5.90
2024-04-22T01:21:33.694Z,5.80
2024-04-22T01:22:34.536Z,6.00
2024-04-22T01:23:33.680Z,5.90
2024-04-22T01:24:33.657Z,6.20
2024-04-22T01:25:33.716Z,6.40
2024-04-22T01:26:33.629Z,6.00
2024-04-22T01:27:33.625Z,5.90
2024-04-22T01:28:33.768Z,6.10
2024-04-22T01:29:33.636Z,6.00
2024-04-22T01:30:33.610Z,5.90
2024-04-22T01:31:34.559Z,5.90
2024-04-22T01:32:33.692Z,6.40
2024-04-22T01:33:33.600Z,6.70
2024-04-22T01:34:33.578Z,5.50
2024-04-22T01:35:33.552Z,6.10
2024-04-22T01:36:33.549Z,5.60
2024-04-22T01:37:33.538Z,6.50
2024-04-22T01:38:33.496Z,6.00
2024-04-22T01:39:33.485Z,6.40
2024-04-22T01:40:33.521Z,6.10
2024-04-22T01:41:33.595Z,6.40
2024-04-22T01:42:33.462Z,6.00
2024-04-22T01:43:33.539Z,6.20
2024-04-22T01:44:33.443Z,6.10
2024-04-22T01:45:33.463Z,6.10
2024-04-22T01:46:33.532Z,5.90
2024-04-22T01:47:33.507Z,6.50
2024-04-22T01:48:33.402Z,6.00
2024-04-22T01:49:33.427Z,6.30
2024-04-22T01:50:33.371Z,5.70
2024-04-22T01:51:34.219Z,6.50
2024-04-22T01:52:33.424Z,6.70
2024-04-22T01:53:33.337Z,6.00
2024-04-22T01:54:33.334Z,6.40
2024-04-22T01:55:33.351Z,5.90
2024-04-22T01:56:33.297Z,6.30
2024-04-22T01:57:33.313Z,6.20
2024-04-22T01:58:33.312Z,6.00
2024-04-22T01:59:33.254Z,6.50
2024-04-22T02:00:33.267Z,6.00
2024-04-22T02:01:33.319Z,6.50
2024-04-22T02:02:33.279Z,6.60
2024-04-22T02:03:33.235Z,6.40
2024-04-22T02:04:33.269Z,5.80
2024-04-22T02:05:33.205Z,5.80
2024-04-22T02:06:33.198Z,6.20
2024-04-22T02:07:33.251Z,6.10
2024-04-22T02:08:33.168Z,6.30
2024-04-22T02:09:33.141Z,6.50
2024-04-22T02:10:33.179Z,6.20
2024-04-22T02:11:33.957Z,5.70
2024-04-22T02:12:33.984Z,6.10
2024-04-22T02:13:33.196Z,6.50
2024-04-22T02:14:33.107Z,5.60
2024-04-22T02:15:33.081Z,5.80
2024-04-22T02:16:33.172Z,5.50
2024-04-22T02:17:33.191Z,6.00
2024-04-22T02:18:33.054Z,5.40
2024-04-22T02:19:33.053Z,6.20
2024-04-22T02:20:33.051Z,5.60
2024-04-22T02:21:33.013Z,5.90
2024-04-22T02:22:34.068Z,5.70
2024-04-22T02:23:32.997Z,5.50
2024-04-22T02:24:32.997Z,5.70
2024-04-22T02:25:32.983Z,5.80
2024-04-22T02:26:32.979Z,6.00
2024-04-22T02:27:32.944Z,6.60
2024-04-22T02:28:33.000Z,6.10
2024-04-22T02:29:32.928Z,5.60
2024-04-22T02:30:32.912Z,5.80
2024-04-22T02:31:32.948Z,6.10
2024-04-22T02:32:34.006Z,5.80
2024-04-22T02:33:33.734Z,5.70
2024-04-22T02:34:32.916Z,6.20
2024-04-22T02:35:32.877Z,6.00
2024-04-22T02:36:32.851Z,6.40
2024-04-22T02:37:32.874Z,7.00
2024-04-22T02:38:32.855Z,7.40
2024-04-22T02:39:32.835Z,7.40
2024-04-22T02:40:32.881Z,6.40
2024-04-22T02:41:32.838Z,6.30
2024-04-22T02:42:32.808Z,6.20
2024-04-22T02:43:32.894Z,6.20
2024-04-22T02:44:32.770Z,5.80
2024-04-22T02:45:32.781Z,6.30
2024-04-22T02:46:32.795Z,5.80
2024-04-22T02:47:32.828Z,6.40
2024-04-22T02:48:32.721Z,6.30
2024-04-22T02:49:32.778Z,6.10
2024-04-22T02:50:32.707Z,6.60
2024-04-22T02:51:32.775Z,6.10
2024-04-22T02:52:33.572Z,5.70
2024-04-22T02:53:32.681Z,6.40
2024-04-22T02:54:32.721Z,6.30
2024-04-22T02:55:32.739Z,6.20
2024-04-22T02:56:32.636Z,6.30
2024-04-22T02:57:32.652Z,7.20
2024-04-22T02:58:32.666Z,6.50
2024-04-22T02:59:32.611Z,6.50
2024-04-22T03:00:32.592Z,7.00
2024-04-22T03:01:32.580Z,6.60
2024-04-22T03:02:32.627Z,6.30
2024-04-22T03:03:32.599Z,6.50
2024-04-22T03:04:32.582Z,6.80
2024-04-22T03:05:32.547Z,6.90
2024-04-22T03:06:32.528Z,6.60
2024-04-22T03:07:32.581Z,7.00
2024-04-22T03:08:32.499Z,8.10
2024-04-22T03:09:32.511Z,7.20
2024-04-22T03:10:32.506Z,8.50
2024-04-22T03:11:32.534Z,7.90
2024-04-22T03:12:32.942Z,7.40
2024-04-22T03:13:33.302Z,7.30
2024-04-22T03:14:32.963Z,7.00
2024-04-22T03:15:32.434Z,7.00
2024-04-22T03:16:33.302Z,7.10
2024-04-22T03:17:32.511Z,6.70
2024-04-22T03:18:32.390Z,6.80
2024-04-22T03:19:32.396Z,6.20
2024-04-22T03:20:32.367Z,6.20
2024-04-22T03:21:32.396Z,5.80
2024-04-22T03:22:33.175Z,5.70
2024-04-22T03:23:32.348Z,5.90
2024-04-22T03:24:32.325Z,5.90
2024-04-22T03:25:32.393Z,5.90
2024-04-22T03:26:32.309Z,6.40
2024-04-22T03:27:32.287Z,5.90
2024-04-22T03:28:32.294Z,5.70
2024-04-22T03:29:32.261Z,5.90
2024-04-22T03:30:32.256Z,5.60
2024-04-22T03:31:32.304Z,6.20
2024-04-22T03:32:32.326Z,5.80
2024-04-22T03:33:33.128Z,5.90
2024-04-22T03:34:33.066Z,5.60
2024-04-22T03:35:32.210Z,6.00
2024-04-22T03:36:32.234Z,6.00
2024-04-22T03:37:32.206Z,5.40
2024-04-22T03:38:32.388Z,5.90
2024-04-22T03:39:32.228Z,5.80
2024-04-22T03:40:32.142Z,6.20
2024-04-22T03:41:32.129Z,5.90
2024-04-22T03:42:32.119Z,6.20
2024-04-22T03:43:32.154Z,6.10
2024-04-22T03:44:32.133Z,5.60
2024-04-22T03:45:32.197Z,5.60
2024-04-22T03:46:32.095Z,5.60
2024-04-22T03:47:32.427Z,6.00
2024-04-22T03:48:32.057Z,5.90
2024-04-22T03:49:32.095Z,6.50
2024-04-22T03:50:32.028Z,5.50
2024-04-22T03:51:32.017Z,5.90
2024-04-22T03:52:32.921Z,5.50
2024-04-22T03:53:32.994Z,5.80
2024-04-22T03:54:31.997Z,6.60
2024-04-22T03:55:32.044Z,5.70
2024-04-22T03:56:31.992Z,5.40
2024-04-22T03:57:31.966Z,5.70
2024-04-22T03:58:31.996Z,5.70
2024-04-22T03:59:31.928Z,4.90
2024-04-22T04:00:31.949Z,5.30
2024-04-22T04:01:31.972Z,4.90
2024-04-22T04:02:31.897Z,4.80
2024-04-22T04:03:31.953Z,5.60
2024-04-22T04:04:32.829Z,5.10
2024-04-22T04:05:32.062Z,4.80
2024-04-22T04:06:32.613Z,4.50
2024-04-22T04:07:31.895Z,5.10
2024-04-22T04:08:31.841Z,5.50
2024-04-22T04:09:31.833Z,5.60
2024-04-22T04:10:31.831Z,5.10
2024-04-22T04:11:31.834Z,5.60
2024-04-22T04:12:31.809Z,5.10
2024-04-22T04:13:31.838Z,5.30
2024-04-22T04:14:32.513Z,5.10
2024-04-22T04:15:32.687Z,5.00
2024-04-22T04:16:31.829Z,5.00
2024-04-22T04:17:31.810Z,5.10
2024-04-22T04:18:31.730Z,4.60
2024-04-22T04:19:31.841Z,4.70
2024-04-22T04:20:31.702Z,4.60
2024-04-22T04:21:31.711Z,4.40
2024-04-22T04:22:32.563Z,4.90
2024-04-22T04:23:31.670Z,5.60
2024-04-22T04:24:31.707Z,4.80
2024-04-22T04:25:31.675Z,5.00
2024-04-22T04:26:31.634Z,5.10
2024-04-22T04:27:31.612Z,5.60
2024-04-22T04:28:31.663Z,5.00
2024-04-22T04:29:31.613Z,4.90
2024-04-22T04:30:31.576Z,5.00
2024-04-22T04:31:32.603Z,5.10
2024-04-22T04:32:31.736Z,4.60
2024-04-22T04:33:31.562Z,5.60
2024-04-22T04:34:31.577Z,5.00
2024-04-22T04:35:31.563Z,5.90
2024-04-22T04:36:31.549Z,5.50
2024-04-22T04:37:31.591Z,5.40
2024-04-22T04:38:31.506Z,5.80
2024-04-22T04:39:31.495Z,4.80
2024-04-22T04:40:31.537Z,5.30
2024-04-22T04:41:31.475Z,5.30
2024-04-22T04:42:31.912Z,5.30
2024-04-22T04:43:31.990Z,5.00
2024-04-22T04:44:31.883Z,5.60
2024-04-22T04:45:31.413Z,5.30
2024-04-22T04:46:31.507Z,5.20
2024-04-22T04:47:31.486Z,5.40
2024-04-22T04:48:32.173Z,5.30
2024-04-22T04:49:31.481Z,5.40
2024-04-22T04:50:31.389Z,5.80
2024-04-22T04:51:31.351Z,5.60
2024-04-22T04:52:31.412Z,5.40
2024-04-22T04:53:31.350Z,5.60
2024-04-22T04:54:31.344Z,5.70
2024-04-22T04:55:32.175Z,5.40
2024-04-22T04:56:32.064Z,5.60
2024-04-22T04:57:31.869Z,5.40
2024-04-22T04:58:31.367Z,5.40
2024-04-22T04:59:31.265Z,5.90
2024-04-22T05:00:31.333Z,5.30
2024-04-22T05:01:31.475Z,5.50
2024-04-22T05:02:31.329Z,4.90
2024-04-22T05:03:31.361Z,5.40
2024-04-22T05:04:31.323Z,5.00
2024-04-22T05:05:31.300Z,5.60
2024-04-22T05:06:31.298Z,5.80
2024-04-22T05:07:31.315Z,5.50
2024-04-22T05:08:31.262Z,5.40
2024-04-22T05:09:31.470Z,5.20
2024-04-22T05:10:31.181Z,5.50
2024-04-22T05:11:31.928Z,5.20
2024-04-22T05:12:31.134Z,5.70
2024-04-22T05:13:31.267Z,5.20
2024-04-22T05:14:31.120Z,5.30
2024-04-22T05:15:31.126Z,5.30
2024-04-22T05:16:31.223Z,5.20
2024-04-22T05:17:31.188Z,6.40
2024-04-22T05:18:31.167Z,10.80
2024-04-22T05:19:31.067Z,13.80
2024-04-22T05:20:31.075Z,12.60
2024-04-22T05:21:31.048Z,12.00
2024-04-22T05:22:31.056Z,9.20
2024-04-22T05:23:31.045Z,9.40
2024-04-22T05:24:30.982Z,8.50
2024-04-22T05:25:31.005Z,7.00
2024-04-22T05:26:30.968Z,7.00
2024-04-22T05:27:33.092Z,7.30
2024-04-22T05:28:30.979Z,8.00
2024-04-22T05:29:30.953Z,10.90
2024-04-22T05:30:30.918Z,11.90
2024-04-22T05:31:30.974Z,12.00
2024-04-22T05:32:30.962Z,11.30
2024-04-22T05:33:31.350Z,8.90
2024-04-22T05:34:30.968Z,8.20
2024-04-22T05:35:30.883Z,7.50
2024-04-22T05:36:31.818Z,6.60
2024-04-22T05:37:30.943Z,6.80
2024-04-22T05:38:30.876Z,6.50
2024-04-22T05:39:31.772Z,7.40
2024-04-22T05:40:30.938Z,7.60
2024-04-22T05:41:30.837Z,7.10
2024-04-22T05:42:30.949Z,7.10
2024-04-22T05:43:30.877Z,7.40
2024-04-22T05:44:30.813Z,6.70
2024-04-22T05:45:30.777Z,7.00
2024-04-22T05:46:30.784Z,7.80
2024-04-22T05:47:30.805Z,7.30
2024-04-22T05:48:30.917Z,7.60
2024-04-22T05:49:30.748Z,8.40
2024-04-22T05:50:30.711Z,8.00
2024-04-22T05:51:30.717Z,8.50
2024-04-22T05:52:30.723Z,9.10
2024-04-22T05:53:30.695Z,8.80
2024-04-22T05:54:30.661Z,8.70
2024-04-22T05:55:30.733Z,8.60
2024-04-22T05:56:30.655Z,9.60
2024-04-22T05:57:31.450Z,8.70
2024-04-22T05:58:31.372Z,8.60
2024-04-22T05:59:30.653Z,9.10
2024-04-22T06:00:30.595Z,8.10
2024-04-22T06:01:30.631Z,7.00
2024-04-22T06:02:30.622Z,7.20
2024-04-22T06:03:30.670Z,7.60
2024-04-22T06:04:30.579Z,7.40
2024-04-22T06:05:30.552Z,6.90
2024-04-22T06:06:30.608Z,7.50
2024-04-22T06:07:30.595Z,7.10
2024-04-22T06:08:30.594Z,7.30
2024-04-22T06:09:30.743Z,7.90
2024-04-22T06:10:30.551Z,8.60
2024-04-22T06:11:30.537Z,8.20
2024-04-22T06:12:30.519Z,8.30
2024-04-22T06:13:30.542Z,9.20
2024-04-22T06:14:30.503Z,7.90
2024-04-22T06:15:30.468Z,9.60
2024-04-22T06:16:35.951Z,11.70
2024-04-22T06:17:37.334Z,12.80
2024-04-22T06:18:35.334Z,11.90
2024-04-22T06:19:31.115Z,10.90
2024-04-22T06:20:30.405Z,10.50
2024-04-22T06:21:30.386Z,10.00
2024-04-22T06:22:31.091Z,10.60
2024-04-22T06:23:30.356Z,9.50
2024-04-22T06:24:30.353Z,9.90
2024-04-22T06:25:30.376Z,9.30
2024-04-22T06:26:30.317Z,10.00
2024-04-22T06:27:30.347Z,10.10
2024-04-22T06:28:30.328Z,9.90
2024-04-22T06:29:30.292Z,9.60
2024-04-22T06:30:30.273Z,9.30
2024-04-22T06:31:30.325Z,8.40
2024-04-22T06:32:30.447Z,8.30
2024-04-22T06:33:30.235Z,7.80
2024-04-22T06:34:30.250Z,8.20
2024-04-22T06:35:30.257Z,6.40
2024-04-22T06:36:30.194Z,7.10
2024-04-22T06:37:31.106Z,6.20
2024-04-22T06:38:30.200Z,6.60
2024-04-22T06:39:30.193Z,7.20
2024-04-22T06:40:30.171Z,8.20
2024-04-22T06:41:30.143Z,7.00
2024-04-22T06:42:30.123Z,8.10
2024-04-22T06:43:30.137Z,10.90
2024-04-22T06:44:30.116Z,10.40
2024-04-22T06:45:30.113Z,10.10
2024-04-22T06:46:30.256Z,10.40
2024-04-22T06:47:30.163Z,7.50
2024-04-22T06:48:30.067Z,6.80
2024-04-22T06:49:30.398Z,6.50
2024-04-22T06:50:30.054Z,6.70
2024-04-22T06:51:30.051Z,6.20
2024-04-22T06:52:30.042Z,5.50
2024-04-22T06:53:30.048Z,6.40
2024-04-22T06:54:29.993Z,6.60
2024-04-22T06:55:30.020Z,6.10
2024-04-22T06:56:29.981Z,6.00
2024-04-22T06:57:29.984Z,5.20
2024-04-22T06:58:30.901Z,5.70
2024-04-22T06:59:29.976Z,5.30
2024-04-22T07:00:29.999Z,5.00
2024-04-22T07:01:35.626Z,4.90
2024-04-22T07:02:30.986Z,5.20
2024-04-22T07:03:30.046Z,5.00
2024-04-22T07:04:29.955Z,5.10
2024-04-22T07:05:29.892Z,4.70
2024-04-22T07:06:29.874Z,5.30
2024-04-22T07:07:29.894Z,4.70
2024-04-22T07:08:30.110Z,4.60
2024-04-22T07:09:29.841Z,5.20
2024-04-22T07:10:29.876Z,5.20
2024-04-22T07:11:29.825Z,4.60
2024-04-22T07:12:29.838Z,4.60
2024-04-22T07:13:29.823Z,5.00
2024-04-22T07:14:29.782Z,5.10
2024-04-22T07:15:29.777Z,4.60
2024-04-22T07:16:29.798Z,4.80
2024-04-22T07:17:29.942Z,5.20
2024-04-22T07:18:29.789Z,4.60
2024-04-22T07:19:30.660Z,3.80
2024-04-22T07:20:29.767Z,4.80
2024-04-22T07:21:29.715Z,4.10
2024-04-22T07:22:29.959Z,5.30
2024-04-22T07:23:29.703Z,3.80
2024-04-22T07:24:29.685Z,4.60
2024-04-22T07:25:29.737Z,4.60
2024-04-22T07:26:29.657Z,4.30
2024-04-22T07:27:29.646Z,4.10
2024-04-22T07:28:29.658Z,4.20
2024-04-22T07:29:29.643Z,4.50
2024-04-22T07:30:29.663Z,4.90
2024-04-22T07:31:29.660Z,5.00
2024-04-22T07:32:29.708Z,4.40
2024-04-22T07:33:31.634Z,4.40
2024-04-22T07:34:29.582Z,5.00
2024-04-22T07:35:29.590Z,3.80
2024-04-22T07:36:29.536Z,4.00
2024-04-22T07:37:29.568Z,4.80
2024-04-22T07:38:30.089Z,4.70
2024-04-22T07:39:30.343Z,4.30
2024-04-22T07:40:29.600Z,5.10
2024-04-22T07:41:29.512Z,4.70
2024-04-22T07:42:29.466Z,4.80
2024-04-22T07:43:29.490Z,4.40
2024-04-22T07:44:29.471Z,4.50
2024-04-22T07:45:31.756Z,4.10
2024-04-22T07:46:29.450Z,4.30
2024-04-22T07:47:29.506Z,3.90
2024-04-22T07:48:29.413Z,4.30
2024-04-22T07:49:29.482Z,3.40
2024-04-22T07:50:30.216Z,4.50
2024-04-22T07:51:29.378Z,3.80
2024-04-22T07:52:29.412Z,4.20
2024-04-22T07:53:29.354Z,3.90
2024-04-22T07:54:29.398Z,4.20
2024-04-22T07:55:29.406Z,4.30
2024-04-22T07:56:29.333Z,4.30
2024-04-22T07:57:29.326Z,3.80
2024-04-22T07:58:29.369Z,3.40
2024-04-22T07:59:29.325Z,3.60
2024-04-22T08:00:29.272Z,3.70
2024-04-22T08:01:29.282Z,3.60
2024-04-22T08:02:31.121Z,3.80
2024-04-22T08:03:29.242Z,4.30
2024-04-22T08:04:29.322Z,3.80
2024-04-22T08:05:29.480Z,3.40
2024-04-22T08:06:29.204Z,4.00
2024-04-22T08:07:29.261Z,3.90
2024-04-22T08:08:29.174Z,4.30
2024-04-22T08:09:29.165Z,4.80
2024-04-22T08:10:29.389Z,4.60
2024-04-22T08:11:29.207Z,4.80
2024-04-22T08:12:29.168Z,3.60
2024-04-22T08:13:29.183Z,4.40
2024-04-22T08:14:29.143Z,3.70
2024-04-22T08:15:29.120Z,3.40
2024-04-22T08:16:29.219Z,4.00
2024-04-22T08:17:29.190Z,4.10
2024-04-22T08:18:29.219Z,4.20
2024-04-22T08:19:29.894Z,3.80
2024-04-22T08:20:29.130Z,3.70
2024-04-22T08:21:29.166Z,2.80
2024-04-22T08:22:29.176Z,3.60
2024-04-22T08:23:29.008Z,3.30
2024-04-22T08:24:29.032Z,3.90
2024-04-22T08:25:29.047Z,3.80
2024-04-22T08:26:28.957Z,3.40
2024-04-22T08:27:29.014Z,3.60
2024-04-22T08:28:28.968Z,3.40
2024-04-22T08:29:28.945Z,3.20
2024-04-22T08:30:28.929Z,3.50
2024-04-22T08:31:28.980Z,3.20
2024-04-22T08:32:29.011Z,3.30
2024-04-22T08:33:29.035Z,3.60
2024-04-22T08:34:28.914Z,3.40
2024-04-22T08:35:28.926Z,3.30
2024-04-22T08:36:28.853Z,3.50
2024-04-22T08:37:28.872Z,4.10
2024-04-22T08:38:28.848Z,3.30
2024-04-22T08:39:28.912Z,2.50
2024-04-22T08:40:28.979Z,3.00
2024-04-22T08:41:29.666Z,2.70
2024-04-22T08:42:28.790Z,3.00
2024-04-22T08:43:28.787Z,3.00
2024-04-22T08:44:28.794Z,3.10
2024-04-22T08:45:28.779Z,3.00
2024-04-22T08:46:28.839Z,2.90
2024-04-22T08:47:28.833Z,2.60
2024-04-22T08:48:29.756Z,3.10
2024-04-22T08:49:28.734Z,2.50
2024-04-22T08:50:28.695Z,2.40
2024-04-22T08:51:28.735Z,2.50
2024-04-22T08:52:33.444Z,2.50
2024-04-22T08:53:29.706Z,2.50
2024-04-22T08:54:28.659Z,2.00
2024-04-22T08:55:28.737Z,2.10
2024-04-22T08:56:28.698Z,2.90
2024-04-22T08:57:28.666Z,2.10
2024-04-22T08:58:28.634Z,2.30
2024-04-22T08:59:37.403Z,2.40
2024-04-22T09:00:29.740Z,2.60
2024-04-22T09:01:29.030Z,2.50
2024-04-22T09:02:28.604Z,2.30
2024-04-22T09:03:28.672Z,2.30
2024-04-22T09:04:28.675Z,2.60
2024-04-22T09:05:28.747Z,2.30
2024-04-22T09:06:28.565Z,2.40
2024-04-22T09:07:28.871Z,2.20
2024-04-22T09:08:28.577Z,2.10
2024-04-22T09:09:40.505Z,2.20
2024-04-22T09:11:05.000Z,2.60
2024-04-22T09:11:57.264Z,2.50
2024-04-22T09:12:29.682Z,2.40
2024-04-22T09:13:28.814Z,2.90
2024-04-22T09:14:28.555Z,2.00
2024-04-22T09:15:28.477Z,2.60
2024-04-22T09:16:28.525Z,2.70
2024-04-22T09:17:28.711Z,2.40
2024-04-22T09:18:30.130Z,2.40
2024-04-22T09:19:28.430Z,2.70
2024-04-22T09:20:28.484Z,2.40
2024-04-22T09:21:29.198Z,2.00
2024-04-22T09:22:28.388Z,2.00
2024-04-22T09:23:28.380Z,1.90
2024-04-22T09:24:28.321Z,2.20
2024-04-22T09:25:28.389Z,2.20
2024-04-22T09:26:28.340Z,2.10
2024-04-22T09:27:28.370Z,1.90
2024-04-22T09:28:28.318Z,2.00
2024-04-22T09:29:28.264Z,2.10
2024-04-22T09:30:28.317Z,2.20
2024-04-22T09:31:28.343Z,1.90
2024-04-22T09:32:28.476Z,1.60
2024-04-22T09:33:28.283Z,1.60
2024-04-22T09:34:28.513Z,1.50
2024-04-22T09:35:28.233Z,1.50
2024-04-22T09:36:28.271Z,1.30
2024-04-22T09:37:28.210Z,1.70
2024-04-22T09:38:39.018Z,1.60
2024-04-22T09:39:29.180Z,1.70
2024-04-22T09:40:28.281Z,1.50
2024-04-22T09:41:29.091Z,1.60
2024-04-22T09:42:28.147Z,1.50
2024-04-22T09:43:28.111Z,1.80
2024-04-22T09:44:28.114Z,1.80
2024-04-22T09:45:28.110Z,1.80
2024-04-22T09:46:28.243Z,1.90
2024-04-22T09:47:28.430Z,2.20
2024-04-22T09:48:28.113Z,1.90
2024-04-22T09:49:30.166Z,1.90
2024-04-22T09:50:28.185Z,2.00
2024-04-22T09:51:28.059Z,1.90
2024-04-22T09:52:28.056Z,2.10
2024-04-22T09:53:28.038Z,2.40
2024-04-22T09:54:27.997Z,1.80
2024-04-22T09:55:28.005Z,2.30
2024-04-22T09:56:28.214Z,1.60
2024-04-22T09:57:27.938Z,2.00
2024-04-22T09:58:28.019Z,1.80
2024-04-22T09:59:28.022Z,1.60
2024-04-22T10:00:28.224Z,2.00
2024-04-22T10:01:28.085Z,2.00
2024-04-22T10:02:28.855Z,2.40
2024-04-22T10:03:28.377Z,1.90
2024-04-22T10:04:28.202Z,2.40
2024-04-22T10:05:27.968Z,2.10
2024-04-22T10:06:28.783Z,2.10
2024-04-22T10:07:27.930Z,1.90
2024-04-22T10:08:27.851Z,1.70
2024-04-22T10:09:27.844Z,1.60
2024-04-22T10:10:27.866Z,1.40
2024-04-22T10:11:27.871Z,1.80
2024-04-22T10:12:28.066Z,1.40
2024-04-22T10:13:27.828Z,2.10
2024-04-22T10:14:27.833Z,1.70
2024-04-22T10:15:27.753Z,1.50
2024-04-22T10:16:27.731Z,1.40
2024-04-22T10:17:27.743Z,1.60
2024-04-22T10:18:27.813Z,1.70
2024-04-22T10:19:28.012Z,1.40
2024-04-22T10:20:27.748Z,1.80
2024-04-22T10:21:27.697Z,1.70
2024-04-22T10:22:28.443Z,1.70
2024-04-22T10:23:28.654Z,1.40
2024-04-22T10:24:27.670Z,1.90
2024-04-22T10:25:28.587Z,1.70
2024-04-22T10:26:27.641Z,1.40
2024-04-22T10:27:27.638Z,2.10
2024-04-22T10:28:27.632Z,1.20
2024-04-22T10:29:27.616Z,1.20
2024-04-22T10:30:27.590Z,1.50
2024-04-22T10:31:27.611Z,1.50
2024-04-22T10:32:27.641Z,1.50
2024-04-22T10:33:27.600Z,1.50
2024-04-22T10:34:27.539Z,1.70
2024-04-22T10:35:27.529Z,1.50
2024-04-22T10:36:27.526Z,1.50
2024-04-22T10:37:27.547Z,1.30
2024-04-22T10:38:27.502Z,1.40
2024-04-22T10:39:27.539Z,1.30
2024-04-22T10:40:27.490Z,1.10
2024-04-22T10:41:28.022Z,1.20
2024-04-22T10:42:28.301Z,1.50
2024-04-22T10:43:28.203Z,1.40
2024-04-22T10:44:27.453Z,1.20
2024-04-22T10:45:27.465Z,1.60
2024-04-22T10:46:27.443Z,1.40
2024-04-22T10:47:27.496Z,1.70
2024-04-22T10:48:27.475Z,1.50
2024-04-22T10:49:27.527Z,1.30
2024-04-22T10:50:27.510Z,1.40
2024-04-22T10:51:27.722Z,1.60
2024-04-22T10:52:28.075Z,1.10
2024-04-22T10:53:27.317Z,1.70
2024-04-22T10:54:27.346Z,1.00
2024-04-22T10:55:27.359Z,1.30
2024-04-22T10:56:27.328Z,1.00
2024-04-22T10:57:27.281Z,1.10
2024-04-22T10:58:27.299Z,1.10
2024-04-22T10:59:27.267Z,1.10
2024-04-22T11:00:27.288Z,1.30
2024-04-22T11:01:27.375Z,1.00
2024-04-22T11:02:27.381Z,1.00
2024-04-22T11:03:28.097Z,1.10
2024-04-22T11:04:27.287Z,1.20
2024-04-22T11:05:27.746Z,1.60
2024-04-22T11:06:27.194Z,1.00
2024-04-22T11:07:27.292Z,1.10
2024-04-22T11:08:27.164Z,1.20
2024-04-22T11:09:27.154Z,1.50
2024-04-22T11:10:34.717Z,1.20
2024-04-22T11:11:28.185Z,1.20
2024-04-22T11:12:29.283Z,1.40
2024-04-22T11:13:27.156Z,1.20
2024-04-22T11:14:27.126Z,1.70
2024-04-22T11:15:27.082Z,1.40
2024-04-22T11:16:27.151Z,1.50
2024-04-22T11:17:27.119Z,1.50
2024-04-22T11:18:27.072Z,1.80
2024-04-22T11:19:27.101Z,1.50
2024-04-22T11:20:27.083Z,1.30
2024-04-22T11:21:27.003Z,1.30
2024-04-22T11:22:27.078Z,1.00
2024-04-22T11:23:27.039Z,1.00
2024-04-22T11:24:26.998Z,1.20
2024-04-22T11:25:27.269Z,1.20
2024-04-22T11:26:26.953Z,1.70
2024-04-22T11:27:26.950Z,1.20
2024-04-22T11:28:27.034Z,1.40
2024-04-22T11:29:26.950Z,1.30
2024-04-22T11:30:26.919Z,1.30
2024-04-22T11:31:26.993Z,1.50
2024-04-22T11:32:26.970Z,1.80
2024-04-22T11:33:26.927Z,1.70
2024-04-22T11:34:26.942Z,1.80
2024-04-22T11:35:26.842Z,1.50
2024-04-22T11:36:26.905Z,1.40
2024-04-22T11:37:26.906Z,1.50
2024-04-22T11:38:26.844Z,1.70
2024-04-22T11:39:26.861Z,1.40
2024-04-22T11:40:26.841Z,1.50
2024-04-22T11:41:26.784Z,1.60
2024-04-22T11:42:26.772Z,1.50
2024-04-22T11:43:26.787Z,1.50
2024-04-22T11:44:26.818Z,1.50
2024-04-22T11:45:26.778Z,1.40
2024-04-22T11:46:26.809Z,1.30
2024-04-22T11:47:26.742Z,1.50
2024-04-22T11:48:26.710Z,1.40
2024-04-22T11:49:26.725Z,1.30
2024-04-22T11:50:26.712Z,1.70
2024-04-22T11:51:26.675Z,1.30
2024-04-22T11:52:26.686Z,1.90
2024-04-22T11:53:26.709Z,1.50
2024-04-22T11:54:26.646Z,1.60
2024-04-22T11:55:26.655Z,1.70
2024-04-22T11:56:26.671Z,1.60
2024-04-22T11:57:26.621Z,1.30
2024-04-22T11:58:26.933Z,1.20
2024-04-22T11:59:26.592Z,1.40
2024-04-22T12:00:26.563Z,1.30
2024-04-22T12:01:26.569Z,1.50
2024-04-22T12:02:26.576Z,1.30
2024-04-22T12:03:26.523Z,1.40
2024-04-22T12:04:27.498Z,1.60
2024-04-22T12:05:26.588Z,1.10
2024-04-22T12:06:26.527Z,1.30
2024-04-22T12:07:26.809Z,1.30
2024-04-22T12:08:26.482Z,1.30
2024-04-22T12:09:26.472Z,1.10
2024-04-22T12:10:26.458Z,1.40
2024-04-22T12:11:26.541Z,1.40
2024-04-22T12:12:27.329Z,1.10
2024-04-22T12:13:26.467Z,1.30
2024-04-22T12:14:26.404Z,1.00
2024-04-22T12:15:26.400Z,1.30
2024-04-22T12:16:26.453Z,1.10
2024-04-22T12:17:26.453Z,1.20
2024-04-22T12:18:26.363Z,1.20
2024-04-22T12:19:26.381Z,1.60
2024-04-22T12:20:26.400Z,1.20
2024-04-22T12:21:26.321Z,1.20
2024-04-22T12:22:26.352Z,1.10
2024-04-22T12:23:26.315Z,0.90
2024-04-22T12:24:26.288Z,1.00
2024-04-22T12:25:27.166Z,1.20
2024-04-22T12:26:27.014Z,1.20
2024-04-22T12:27:26.250Z,1.60
2024-04-22T12:28:26.303Z,1.40
2024-04-22T12:29:26.302Z,1.10
2024-04-22T12:30:26.221Z,1.10
2024-04-22T12:31:26.218Z,1.50
2024-04-22T12:32:26.377Z,1.10
2024-04-22T12:33:26.261Z,1.10
2024-04-22T12:34:26.480Z,1.30
2024-04-22T12:35:26.164Z,1.20
2024-04-22T12:36:26.156Z,1.10
2024-04-22T12:37:26.196Z,1.20
2024-04-22T12:38:26.290Z,1.00
2024-04-22T12:39:27.072Z,1.10
2024-04-22T12:40:26.156Z,1.60
2024-04-22T12:41:26.119Z,1.20
2024-04-22T12:42:26.105Z,1.30
2024-04-22T12:43:26.100Z,1.40
2024-04-22T12:44:26.236Z,1.60
2024-04-22T12:45:26.048Z,1.50
2024-04-22T12:46:29.197Z,1.30
2024-04-22T12:47:26.888Z,1.30
2024-04-22T12:48:26.042Z,1.20
2024-04-22T12:49:26.086Z,1.40
2024-04-22T12:50:26.001Z,1.60
2024-04-22T12:51:25.974Z,1.40
2024-04-22T12:52:26.000Z,1.40
2024-04-22T12:53:25.988Z,1.10
2024-04-22T12:54:26.570Z,1.70
2024-04-22T12:55:25.927Z,1.50
2024-04-22T12:56:25.917Z,1.30
2024-04-22T12:57:25.934Z,1.20
2024-04-22T12:58:25.929Z,1.10
2024-04-22T12:59:25.898Z,1.50
2024-04-22T13:00:26.813Z,1.40
2024-04-22T13:01:25.898Z,1.20
2024-04-22T13:02:26.668Z,1.30
2024-04-22T13:03:25.839Z,1.20
2024-04-22T13:04:25.973Z,1.00
2024-04-22T13:05:26.598Z,1.40
2024-04-22T13:06:26.600Z,1.30
2024-04-22T13:07:25.816Z,1.20
2024-04-22T13:08:25.781Z,1.30
2024-04-22T13:09:25.761Z,1.10
2024-04-22T13:10:25.781Z,1.10
2024-04-22T13:11:25.845Z,1.00
2024-04-22T13:12:25.731Z,1.60
2024-04-22T13:13:26.598Z,1.50
2024-04-22T13:14:25.714Z,1.40
2024-04-22T13:15:25.729Z,1.30
2024-04-22T13:16:25.739Z,1.60
2024-04-22T13:17:25.818Z,1.50